ENBR

Bergen , Flesland Airport

Bergen, Norway
METAR ENBR 211320Z 20007KT 9999 FEW008 SCT020 BKN030 17/13 Q1011 TEMPO BKN012 RMK WIND 1200FT 20008KT
Observed Flight Rules
Jul-21 @ 13:20 UTC (15 minutes ago) Marginal Visual Flight Rules
Wind Visibility Clouds
200° at 7 knots 10,000+ meters
  • Few at 800' AGL
  • Scattered at 2,000' AGL
  • Broken at 3,000' AGL
Temperatures Readings
Current 17°C / 63°F
Dewpoint 13°C / 55°F
Humidity 77%
Altimeter 29.85" Hg
Pressure 1011 hPa
Elevation 50
METAR ENBR 211320Z 20007KT 9999 FEW008 SCT020 BKN030 17/13 Q1011 TEMPO BKN012 RMK WIND 1200FT 20008KT
Observed Flight Rules
Jul-21 @ 13:20 UTC
(15 minutes ago)
MVFR
Wind Visibility
200° at 7 knots 10,000+ meters
Clouds
  • Few at 800' AGL
  • Scattered at 2,000' AGL
  • Broken at 3,000' AGL
Temperature Dewpoint
17°C / 63°F 13°C / 55°F
Humidity Altimeter Pressure
77% 29.85" Hg 1011 hPa